sensor_id;sensor_type;location;lat;lon;timestamp;P1;durP1;ratioP1;P2;durP2;ratioP2
14030;SDS011;7090;49.436;8.490;2023-08-30T00:02:04;3.10;;;3.00;;
14030;SDS011;7090;49.436;8.490;2023-08-30T00:04:30;5.03;;;4.72;;
14030;SDS011;7090;49.436;8.490;2023-08-30T00:06:55;3.58;;;3.47;;
14030;SDS011;7090;49.436;8.490;2023-08-30T00:09:21;3.53;;;3.40;;
14030;SDS011;7090;49.436;8.490;2023-08-30T00:11:46;3.00;;;2.90;;
14030;SDS011;7090;49.436;8.490;2023-08-30T00:14:12;4.03;;;3.83;;
14030;SDS011;7090;49.436;8.490;2023-08-30T00:16:38;3.20;;;3.10;;
14030;SDS011;7090;49.436;8.490;2023-08-30T00:19:03;3.75;;;3.55;;
14030;SDS011;7090;49.436;8.490;2023-08-30T00:21:29;3.17;;;3.08;;
14030;SDS011;7090;49.436;8.490;2023-08-30T00:23:55;3.00;;;2.90;;
14030;SDS011;7090;49.436;8.490;2023-08-30T00:26:21;2.40;;;2.35;;
14030;SDS011;7090;49.436;8.490;2023-08-30T00:28:46;3.90;;;3.63;;
14030;SDS011;7090;49.436;8.490;2023-08-30T00:31:12;2.10;;;2.10;;
14030;SDS011;7090;49.436;8.490;2023-08-30T00:33:38;2.92;;;2.83;;
14030;SDS011;7090;49.436;8.490;2023-08-30T00:36:03;2.65;;;2.58;;
14030;SDS011;7090;49.436;8.490;2023-08-30T00:38:29;2.50;;;2.40;;
14030;SDS011;7090;49.436;8.490;2023-08-30T00:40:57;2.65;;;2.55;;
14030;SDS011;7090;49.436;8.490;2023-08-30T00:43:23;2.97;;;2.88;;
14030;SDS011;7090;49.436;8.490;2023-08-30T00:45:49;2.78;;;2.67;;
14030;SDS011;7090;49.436;8.490;2023-08-30T00:48:15;3.33;;;3.13;;
14030;SDS011;7090;49.436;8.490;2023-08-30T00:50:43;2.97;;;2.88;;
14030;SDS011;7090;49.436;8.490;2023-08-30T00:53:09;2.50;;;2.40;;
14030;SDS011;7090;49.436;8.490;2023-08-30T00:55:36;2.92;;;2.83;;
14030;SDS011;7090;49.436;8.490;2023-08-30T00:58:02;2.72;;;2.63;;
14030;SDS011;7090;49.436;8.490;2023-08-30T01:00:29;3.05;;;2.92;;
14030;SDS011;7090;49.436;8.490;2023-08-30T01:02:56;3.28;;;2.97;;
14030;SDS011;7090;49.436;8.490;2023-08-30T01:05:22;2.85;;;2.75;;
14030;SDS011;7090;49.436;8.490;2023-08-30T01:07:48;2.25;;;2.25;;
14030;SDS011;7090;49.436;8.490;2023-08-30T01:10:15;2.75;;;2.65;;
14030;SDS011;7090;49.436;8.490;2023-08-30T01:12:43;2.88;;;2.78;;
14030;SDS011;7090;49.436;8.490;2023-08-30T01:15:19;3.28;;;3.10;;
14030;SDS011;7090;49.436;8.490;2023-08-30T01:17:49;3.15;;;3.05;;
14030;SDS011;7090;49.436;8.490;2023-08-30T01:20:17;4.32;;;3.85;;
14030;SDS011;7090;49.436;8.490;2023-08-30T01:23:03;2.80;;;2.70;;
14030;SDS011;7090;49.436;8.490;2023-08-30T01:25:43;3.92;;;3.72;;
14030;SDS011;7090;49.436;8.490;2023-08-30T01:28:34;3.80;;;3.60;;
14030;SDS011;7090;49.436;8.490;2023-08-30T01:31:02;2.90;;;2.80;;
14030;SDS011;7090;49.436;8.490;2023-08-30T01:33:31;3.03;;;2.92;;
14030;SDS011;7090;49.436;8.490;2023-08-30T01:35:58;4.50;;;3.95;;
14030;SDS011;7090;49.436;8.490;2023-08-30T01:38:26;3.80;;;3.45;;
14030;SDS011;7090;49.436;8.490;2023-08-30T01:40:53;3.25;;;2.95;;
14030;SDS011;7090;49.436;8.490;2023-08-30T01:43:21;3.25;;;3.15;;
14030;SDS011;7090;49.436;8.490;2023-08-30T01:45:47;2.50;;;2.40;;
14030;SDS011;7090;49.436;8.490;2023-08-30T01:48:14;3.92;;;3.70;;
14030;SDS011;7090;49.436;8.490;2023-08-30T01:50:42;4.72;;;4.43;;
14030;SDS011;7090;49.436;8.490;2023-08-30T01:53:10;2.90;;;2.80;;
14030;SDS011;7090;49.436;8.490;2023-08-30T01:55:37;2.90;;;2.80;;
14030;SDS011;7090;49.436;8.490;2023-08-30T01:58:04;3.50;;;3.30;;
14030;SDS011;7090;49.436;8.490;2023-08-30T02:00:31;3.65;;;3.45;;
14030;SDS011;7090;49.436;8.490;2023-08-30T02:02:57;2.30;;;2.25;;
14030;SDS011;7090;49.436;8.490;2023-08-30T02:05:22;3.78;;;3.58;;
14030;SDS011;7090;49.436;8.490;2023-08-30T02:10:27;2.08;;;2.08;;
14030;SDS011;7090;49.436;8.490;2023-08-30T02:12:56;3.28;;;2.97;;
14030;SDS011;7090;49.436;8.490;2023-08-30T02:15:24;4.47;;;4.15;;
14030;SDS011;7090;49.436;8.490;2023-08-30T02:17:51;2.78;;;2.67;;
14030;SDS011;7090;49.436;8.490;2023-08-30T02:20:17;3.22;;;3.10;;
14030;SDS011;7090;49.436;8.490;2023-08-30T02:22:43;2.30;;;2.20;;
14030;SDS011;7090;49.436;8.490;2023-08-30T02:25:09;2.92;;;2.83;;
14030;SDS011;7090;49.436;8.490;2023-08-30T02:27:35;3.95;;;3.75;;
14030;SDS011;7090;49.436;8.490;2023-08-30T02:30:00;2.83;;;2.72;;
14030;SDS011;7090;49.436;8.490;2023-08-30T02:32:27;3.78;;;3.50;;
14030;SDS011;7090;49.436;8.490;2023-08-30T02:34:53;2.10;;;2.10;;
14030;SDS011;7090;49.436;8.490;2023-08-30T02:37:19;2.70;;;2.60;;
14030;SDS011;7090;49.436;8.490;2023-08-30T02:39:45;3.08;;;2.97;;
14030;SDS011;7090;49.436;8.490;2023-08-30T02:42:10;2.00;;;2.00;;
14030;SDS011;7090;49.436;8.490;2023-08-30T02:44:36;2.42;;;2.33;;
14030;SDS011;7090;49.436;8.490;2023-08-30T02:47:01;1.90;;;1.90;;
14030;SDS011;7090;49.436;8.490;2023-08-30T02:49:27;1.80;;;1.80;;
14030;SDS011;7090;49.436;8.490;2023-08-30T02:51:53;2.80;;;2.70;;
14030;SDS011;7090;49.436;8.490;2023-08-30T02:54:18;2.38;;;2.28;;
14030;SDS011;7090;49.436;8.490;2023-08-30T02:56:44;2.33;;;2.22;;
14030;SDS011;7090;49.436;8.490;2023-08-30T02:59:10;2.22;;;2.13;;
14030;SDS011;7090;49.436;8.490;2023-08-30T03:01:37;1.90;;;1.90;;
14030;SDS011;7090;49.436;8.490;2023-08-30T03:04:06;2.05;;;2.05;;
14030;SDS011;7090;49.436;8.490;2023-08-30T03:06:33;2.22;;;2.13;;
14030;SDS011;7090;49.436;8.490;2023-08-30T03:08:59;2.22;;;2.13;;
14030;SDS011;7090;49.436;8.490;2023-08-30T03:11:24;2.28;;;2.20;;
14030;SDS011;7090;49.436;8.490;2023-08-30T03:13:50;5.10;;;4.70;;
14030;SDS011;7090;49.436;8.490;2023-08-30T03:16:18;2.63;;;2.53;;
14030;SDS011;7090;49.436;8.490;2023-08-30T03:18:44;2.40;;;2.30;;
14030;SDS011;7090;49.436;8.490;2023-08-30T03:21:10;1.83;;;1.83;;
14030;SDS011;7090;49.436;8.490;2023-08-30T03:23:36;2.97;;;2.78;;
14030;SDS011;7090;49.436;8.490;2023-08-30T03:28:38;2.10;;;2.00;;
14030;SDS011;7090;49.436;8.490;2023-08-30T03:31:15;2.50;;;2.40;;
14030;SDS011;7090;49.436;8.490;2023-08-30T03:33:41;2.83;;;2.72;;
14030;SDS011;7090;49.436;8.490;2023-08-30T03:36:09;2.80;;;2.65;;
14030;SDS011;7090;49.436;8.490;2023-08-30T03:38:36;2.50;;;2.40;;
14030;SDS011;7090;49.436;8.490;2023-08-30T03:41:02;2.03;;;2.03;;
14030;SDS011;7090;49.436;8.490;2023-08-30T03:43:28;2.40;;;2.30;;
14030;SDS011;7090;49.436;8.490;2023-08-30T03:45:55;2.80;;;2.70;;
14030;SDS011;7090;49.436;8.490;2023-08-30T03:48:20;3.90;;;3.65;;
14030;SDS011;7090;49.436;8.490;2023-08-30T03:50:46;3.75;;;3.55;;
14030;SDS011;7090;49.436;8.490;2023-08-30T03:53:11;3.50;;;3.30;;
14030;SDS011;7090;49.436;8.490;2023-08-30T03:55:37;2.53;;;2.42;;
14030;SDS011;7090;49.436;8.490;2023-08-30T03:58:02;2.15;;;2.15;;
14030;SDS011;7090;49.436;8.490;2023-08-30T04:00:28;2.55;;;2.45;;
14030;SDS011;7090;49.436;8.490;2023-08-30T04:02:54;3.15;;;3.05;;
14030;SDS011;7090;49.436;8.490;2023-08-30T04:05:19;2.90;;;2.75;;
14030;SDS011;7090;49.436;8.490;2023-08-30T04:07:45;2.10;;;2.10;;
14030;SDS011;7090;49.436;8.490;2023-08-30T04:10:10;2.20;;;2.20;;
14030;SDS011;7090;49.436;8.490;2023-08-30T04:12:36;4.88;;;4.55;;
14030;SDS011;7090;49.436;8.490;2023-08-30T04:15:01;3.67;;;3.47;;
14030;SDS011;7090;49.436;8.490;2023-08-30T04:17:28;4.18;;;3.88;;
14030;SDS011;7090;49.436;8.490;2023-08-30T04:19:53;5.35;;;4.85;;
14030;SDS011;7090;49.436;8.490;2023-08-30T04:22:19;6.00;;;3.83;;
14030;SDS011;7090;49.436;8.490;2023-08-30T04:24:45;5.22;;;4.88;;
14030;SDS011;7090;49.436;8.490;2023-08-30T04:27:11;5.80;;;5.28;;
14030;SDS011;7090;49.436;8.490;2023-08-30T04:29:36;3.70;;;3.42;;
14030;SDS011;7090;49.436;8.490;2023-08-30T04:32:02;3.05;;;2.92;;
14030;SDS011;7090;49.436;8.490;2023-08-30T04:34:28;3.05;;;2.95;;
14030;SDS011;7090;49.436;8.490;2023-08-30T04:36:55;3.22;;;3.08;;
14030;SDS011;7090;49.436;8.490;2023-08-30T04:39:21;2.63;;;2.53;;
14030;SDS011;7090;49.436;8.490;2023-08-30T04:41:46;2.05;;;2.05;;
14030;SDS011;7090;49.436;8.490;2023-08-30T04:44:12;2.85;;;2.75;;
14030;SDS011;7090;49.436;8.490;2023-08-30T04:46:37;5.03;;;4.72;;
14030;SDS011;7090;49.436;8.490;2023-08-30T04:49:03;4.43;;;4.13;;
14030;SDS011;7090;49.436;8.490;2023-08-30T04:51:30;2.00;;;2.00;;
14030;SDS011;7090;49.436;8.490;2023-08-30T04:53:55;3.63;;;3.53;;
14030;SDS011;7090;49.436;8.490;2023-08-30T04:56:21;4.45;;;3.78;;
14030;SDS011;7090;49.436;8.490;2023-08-30T04:58:46;2.53;;;2.42;;
14030;SDS011;7090;49.436;8.490;2023-08-30T05:01:12;2.60;;;2.50;;
14030;SDS011;7090;49.436;8.490;2023-08-30T05:03:38;3.38;;;3.22;;
14030;SDS011;7090;49.436;8.490;2023-08-30T05:06:04;3.38;;;3.15;;
14030;SDS011;7090;49.436;8.490;2023-08-30T05:08:30;3.15;;;3.05;;
14030;SDS011;7090;49.436;8.490;2023-08-30T05:10:56;4.03;;;3.83;;
14030;SDS011;7090;49.436;8.490;2023-08-30T05:13:22;3.35;;;3.25;;
14030;SDS011;7090;49.436;8.490;2023-08-30T05:15:47;2.40;;;2.30;;
14030;SDS011;7090;49.436;8.490;2023-08-30T05:18:13;4.65;;;4.43;;
14030;SDS011;7090;49.436;8.490;2023-08-30T05:20:38;3.50;;;3.30;;
14030;SDS011;7090;49.436;8.490;2023-08-30T05:23:04;3.38;;;3.28;;
14030;SDS011;7090;49.436;8.490;2023-08-30T05:25:30;4.95;;;4.47;;
14030;SDS011;7090;49.436;8.490;2023-08-30T05:27:55;3.67;;;3.47;;
14030;SDS011;7090;49.436;8.490;2023-08-30T05:30:21;3.83;;;3.63;;
14030;SDS011;7090;49.436;8.490;2023-08-30T05:32:46;4.53;;;4.22;;
14030;SDS011;7090;49.436;8.490;2023-08-30T05:35:12;5.45;;;5.03;;
14030;SDS011;7090;49.436;8.490;2023-08-30T05:37:37;6.03;;;5.57;;
14030;SDS011;7090;49.436;8.490;2023-08-30T05:40:03;2.80;;;2.70;;
14030;SDS011;7090;49.436;8.490;2023-08-30T05:42:29;2.85;;;2.75;;
14030;SDS011;7090;49.436;8.490;2023-08-30T05:44:55;3.15;;;3.03;;
14030;SDS011;7090;49.436;8.490;2023-08-30T05:47:20;5.10;;;4.60;;
14030;SDS011;7090;49.436;8.490;2023-08-30T05:49:46;3.13;;;3.03;;
14030;SDS011;7090;49.436;8.490;2023-08-30T05:52:12;3.17;;;2.97;;
14030;SDS011;7090;49.436;8.490;2023-08-30T05:54:41;5.00;;;3.58;;
14030;SDS011;7090;49.436;8.490;2023-08-30T05:57:07;4.25;;;4.00;;
14030;SDS011;7090;49.436;8.490;2023-08-30T05:59:33;3.70;;;3.50;;
14030;SDS011;7090;49.436;8.490;2023-08-30T06:02:00;3.30;;;3.10;;
14030;SDS011;7090;49.436;8.490;2023-08-30T06:04:26;2.20;;;2.20;;
14030;SDS011;7090;49.436;8.490;2023-08-30T06:06:51;2.47;;;2.38;;
14030;SDS011;7090;49.436;8.490;2023-08-30T06:09:17;2.20;;;2.20;;
14030;SDS011;7090;49.436;8.490;2023-08-30T06:11:42;5.40;;;5.00;;
14030;SDS011;7090;49.436;8.490;2023-08-30T06:14:08;6.03;;;5.63;;
14030;SDS011;7090;49.436;8.490;2023-08-30T06:16:33;3.00;;;2.90;;
14030;SDS011;7090;49.436;8.490;2023-08-30T06:18:59;4.65;;;4.43;;
14030;SDS011;7090;49.436;8.490;2023-08-30T06:21:25;4.22;;;3.95;;
14030;SDS011;7090;49.436;8.490;2023-08-30T06:23:51;3.78;;;3.67;;
14030;SDS011;7090;49.436;8.490;2023-08-30T06:26:17;4.72;;;4.53;;
14030;SDS011;7090;49.436;8.490;2023-08-30T06:28:42;3.33;;;3.22;;
14030;SDS011;7090;49.436;8.490;2023-08-30T06:31:09;4.75;;;4.53;;
14030;SDS011;7090;49.436;8.490;2023-08-30T06:33:35;3.60;;;3.50;;
14030;SDS011;7090;49.436;8.490;2023-08-30T06:36:01;5.95;;;5.55;;
14030;SDS011;7090;49.436;8.490;2023-08-30T06:38:27;6.18;;;5.78;;
14030;SDS011;7090;49.436;8.490;2023-08-30T06:40:53;6.90;;;6.30;;
14030;SDS011;7090;49.436;8.490;2023-08-30T06:43:18;5.68;;;5.38;;
14030;SDS011;7090;49.436;8.490;2023-08-30T06:45:44;7.28;;;5.28;;
14030;SDS011;7090;49.436;8.490;2023-08-30T06:48:11;5.90;;;5.50;;
14030;SDS011;7090;49.436;8.490;2023-08-30T06:50:36;6.80;;;6.32;;
14030;SDS011;7090;49.436;8.490;2023-08-30T06:53:02;5.25;;;4.95;;
14030;SDS011;7090;49.436;8.490;2023-08-30T06:55:28;4.50;;;4.30;;
14030;SDS011;7090;49.436;8.490;2023-08-30T06:57:54;6.47;;;5.85;;
14030;SDS011;7090;49.436;8.490;2023-08-30T07:00:20;7.65;;;7.05;;
14030;SDS011;7090;49.436;8.490;2023-08-30T07:02:46;8.05;;;7.35;;
14030;SDS011;7090;49.436;8.490;2023-08-30T07:05:12;14.32;;;8.18;;
14030;SDS011;7090;49.436;8.490;2023-08-30T07:07:38;6.88;;;6.30;;
14030;SDS011;7090;49.436;8.490;2023-08-30T07:10:04;3.90;;;3.80;;
14030;SDS011;7090;49.436;8.490;2023-08-30T07:12:30;6.40;;;6.00;;
14030;SDS011;7090;49.436;8.490;2023-08-30T07:14:56;5.70;;;5.40;;
14030;SDS011;7090;49.436;8.490;2023-08-30T07:17:21;7.85;;;7.25;;
14030;SDS011;7090;49.436;8.490;2023-08-30T07:19:47;5.20;;;5.00;;
14030;SDS011;7090;49.436;8.490;2023-08-30T07:22:13;5.93;;;5.63;;
14030;SDS011;7090;49.436;8.490;2023-08-30T07:24:41;8.00;;;7.30;;
14030;SDS011;7090;49.436;8.490;2023-08-30T07:27:10;7.13;;;6.63;;
14030;SDS011;7090;49.436;8.490;2023-08-30T07:29:37;8.07;;;7.57;;
14030;SDS011;7090;49.436;8.490;2023-08-30T07:32:05;7.63;;;7.20;;
14030;SDS011;7090;49.436;8.490;2023-08-30T07:34:31;7.43;;;6.90;;
14030;SDS011;7090;49.436;8.490;2023-08-30T07:36:56;7.30;;;6.90;;
14030;SDS011;7090;49.436;8.490;2023-08-30T07:39:22;9.88;;;8.95;;
14030;SDS011;7090;49.436;8.490;2023-08-30T07:41:48;7.55;;;6.93;;
14030;SDS011;7090;49.436;8.490;2023-08-30T07:44:13;8.98;;;8.25;;
14030;SDS011;7090;49.436;8.490;2023-08-30T07:46:39;8.68;;;8.02;;
14030;SDS011;7090;49.436;8.490;2023-08-30T07:49:05;9.13;;;8.32;;
14030;SDS011;7090;49.436;8.490;2023-08-30T07:51:30;8.05;;;7.45;;
14030;SDS011;7090;49.436;8.490;2023-08-30T07:53:56;8.48;;;7.78;;
14030;SDS011;7090;49.436;8.490;2023-08-30T07:56:21;8.13;;;7.55;;
14030;SDS011;7090;49.436;8.490;2023-08-30T07:58:47;8.57;;;7.78;;
14030;SDS011;7090;49.436;8.490;2023-08-30T08:01:12;7.22;;;6.78;;
14030;SDS011;7090;49.436;8.490;2023-08-30T08:03:38;7.20;;;6.70;;
14030;SDS011;7090;49.436;8.490;2023-08-30T08:06:06;8.43;;;7.85;;
14030;SDS011;7090;49.436;8.490;2023-08-30T08:08:31;10.48;;;9.57;;
14030;SDS011;7090;49.436;8.490;2023-08-30T08:10:58;6.68;;;6.38;;
14030;SDS011;7090;49.436;8.490;2023-08-30T08:13:24;8.38;;;7.88;;
14030;SDS011;7090;49.436;8.490;2023-08-30T08:15:50;9.60;;;8.85;;
14030;SDS011;7090;49.436;8.490;2023-08-30T08:18:15;9.95;;;9.15;;
14030;SDS011;7090;49.436;8.490;2023-08-30T08:20:41;9.73;;;8.85;;
14030;SDS011;7090;49.436;8.490;2023-08-30T08:23:06;10.07;;;9.20;;
14030;SDS011;7090;49.436;8.490;2023-08-30T08:25:32;8.85;;;8.18;;
14030;SDS011;7090;49.436;8.490;2023-08-30T08:27:58;5.65;;;5.38;;
14030;SDS011;7090;49.436;8.490;2023-08-30T08:30:23;7.65;;;7.25;;
14030;SDS011;7090;49.436;8.490;2023-08-30T08:32:49;6.40;;;6.03;;
14030;SDS011;7090;49.436;8.490;2023-08-30T08:35:14;5.82;;;5.63;;
14030;SDS011;7090;49.436;8.490;2023-08-30T08:37:40;8.48;;;7.85;;
14030;SDS011;7090;49.436;8.490;2023-08-30T08:40:06;8.88;;;8.18;;
14030;SDS011;7090;49.436;8.490;2023-08-30T08:42:35;9.00;;;8.20;;
14030;SDS011;7090;49.436;8.490;2023-08-30T08:45:02;8.75;;;8.15;;
14030;SDS011;7090;49.436;8.490;2023-08-30T08:47:32;8.65;;;8.05;;
14030;SDS011;7090;49.436;8.490;2023-08-30T08:49:58;9.43;;;8.65;;
14030;SDS011;7090;49.436;8.490;2023-08-30T08:52:28;8.75;;;7.95;;
14030;SDS011;7090;49.436;8.490;2023-08-30T08:54:54;7.47;;;7.03;;
14030;SDS011;7090;49.436;8.490;2023-08-30T08:57:20;7.50;;;7.10;;
14030;SDS011;7090;49.436;8.490;2023-08-30T08:59:46;8.48;;;7.68;;
14030;SDS011;7090;49.436;8.490;2023-08-30T09:02:13;7.30;;;6.90;;
14030;SDS011;7090;49.436;8.490;2023-08-30T09:04:40;9.88;;;8.52;;
14030;SDS011;7090;49.436;8.490;2023-08-30T09:07:05;8.93;;;8.13;;
14030;SDS011;7090;49.436;8.490;2023-08-30T09:09:32;7.45;;;7.05;;
14030;SDS011;7090;49.436;8.490;2023-08-30T09:11:58;5.75;;;5.55;;
14030;SDS011;7090;49.436;8.490;2023-08-30T09:14:24;8.68;;;8.07;;
14030;SDS011;7090;49.436;8.490;2023-08-30T09:16:56;8.13;;;7.63;;
14030;SDS011;7090;49.436;8.490;2023-08-30T09:19:23;6.40;;;6.10;;
14030;SDS011;7090;49.436;8.490;2023-08-30T09:21:56;8.13;;;7.43;;
14030;SDS011;7090;49.436;8.490;2023-08-30T09:24:23;6.55;;;6.25;;
14030;SDS011;7090;49.436;8.490;2023-08-30T09:26:50;7.22;;;6.88;;
14030;SDS011;7090;49.436;8.490;2023-08-30T09:29:17;8.77;;;7.97;;
14030;SDS011;7090;49.436;8.490;2023-08-30T09:31:44;11.55;;;6.85;;
14030;SDS011;7090;49.436;8.490;2023-08-30T09:34:10;7.45;;;7.05;;
14030;SDS011;7090;49.436;8.490;2023-08-30T09:39:07;7.72;;;7.22;;
14030;SDS011;7090;49.436;8.490;2023-08-30T09:41:34;8.32;;;7.63;;
14030;SDS011;7090;49.436;8.490;2023-08-30T09:44:06;6.13;;;5.93;;
14030;SDS011;7090;49.436;8.490;2023-08-30T09:46:32;6.80;;;6.45;;
14030;SDS011;7090;49.436;8.490;2023-08-30T09:49:05;7.47;;;7.00;;
14030;SDS011;7090;49.436;8.490;2023-08-30T09:51:32;7.53;;;7.13;;
14030;SDS011;7090;49.436;8.490;2023-08-30T09:54:00;7.53;;;7.00;;
14030;SDS011;7090;49.436;8.490;2023-08-30T09:56:30;7.18;;;6.78;;
14030;SDS011;7090;49.436;8.490;2023-08-30T09:58:57;7.85;;;7.35;;
14030;SDS011;7090;49.436;8.490;2023-08-30T10:01:25;6.00;;;5.70;;
14030;SDS011;7090;49.436;8.490;2023-08-30T10:03:52;7.13;;;6.72;;
14030;SDS011;7090;49.436;8.490;2023-08-30T10:06:20;9.77;;;6.97;;
14030;SDS011;7090;49.436;8.490;2023-08-30T10:08:47;7.75;;;7.25;;
14030;SDS011;7090;49.436;8.490;2023-08-30T10:11:16;6.25;;;5.93;;
14030;SDS011;7090;49.436;8.490;2023-08-30T10:13:43;8.00;;;7.40;;
14030;SDS011;7090;49.436;8.490;2023-08-30T10:16:12;8.07;;;7.38;;
14030;SDS011;7090;49.436;8.490;2023-08-30T10:18:41;6.80;;;6.40;;
14030;SDS011;7090;49.436;8.490;2023-08-30T10:21:08;6.95;;;6.65;;
14030;SDS011;7090;49.436;8.490;2023-08-30T10:23:37;8.25;;;7.75;;
14030;SDS011;7090;49.436;8.490;2023-08-30T10:26:04;7.82;;;7.43;;
14030;SDS011;7090;49.436;8.490;2023-08-30T10:28:31;6.93;;;6.53;;
14030;SDS011;7090;49.436;8.490;2023-08-30T10:30:59;7.57;;;6.97;;
14030;SDS011;7090;49.436;8.490;2023-08-30T10:33:24;7.85;;;7.35;;
14030;SDS011;7090;49.436;8.490;2023-08-30T10:35:51;7.38;;;6.97;;
14030;SDS011;7090;49.436;8.490;2023-08-30T10:38:26;8.10;;;7.60;;
14030;SDS011;7090;49.436;8.490;2023-08-30T10:40:53;8.55;;;7.18;;
14030;SDS011;7090;49.436;8.490;2023-08-30T10:43:28;6.35;;;6.05;;
14030;SDS011;7090;49.436;8.490;2023-08-30T10:45:58;7.20;;;6.78;;
14030;SDS011;7090;49.436;8.490;2023-08-30T10:48:34;6.90;;;6.55;;
14030;SDS011;7090;49.436;8.490;2023-08-30T10:51:04;6.97;;;6.47;;
14030;SDS011;7090;49.436;8.490;2023-08-30T10:53:32;7.18;;;6.72;;
14030;SDS011;7090;49.436;8.490;2023-08-30T10:56:09;6.50;;;6.20;;
14030;SDS011;7090;49.436;8.490;2023-08-30T10:58:40;6.28;;;5.97;;
14030;SDS011;7090;49.436;8.490;2023-08-30T11:01:07;6.88;;;6.35;;
14030;SDS011;7090;49.436;8.490;2023-08-30T11:03:39;7.40;;;7.00;;
14030;SDS011;7090;49.436;8.490;2023-08-30T11:06:05;6.55;;;6.20;;
14030;SDS011;7090;49.436;8.490;2023-08-30T11:08:30;6.88;;;6.38;;
14030;SDS011;7090;49.436;8.490;2023-08-30T11:11:06;5.85;;;5.65;;
14030;SDS011;7090;49.436;8.490;2023-08-30T11:13:34;6.82;;;6.43;;
14030;SDS011;7090;49.436;8.490;2023-08-30T11:16:00;7.75;;;7.15;;
14030;SDS011;7090;49.436;8.490;2023-08-30T11:18:28;6.88;;;6.53;;
14030;SDS011;7090;49.436;8.490;2023-08-30T11:21:04;6.72;;;6.40;;
14030;SDS011;7090;49.436;8.490;2023-08-30T11:23:31;7.40;;;6.82;;
14030;SDS011;7090;49.436;8.490;2023-08-30T11:25:57;7.47;;;6.88;;
14030;SDS011;7090;49.436;8.490;2023-08-30T11:28:23;6.28;;;5.97;;
14030;SDS011;7090;49.436;8.490;2023-08-30T11:30:53;7.30;;;6.90;;
14030;SDS011;7090;49.436;8.490;2023-08-30T11:33:19;7.18;;;6.72;;
14030;SDS011;7090;49.436;8.490;2023-08-30T11:35:49;7.03;;;6.63;;
14030;SDS011;7090;49.436;8.490;2023-08-30T11:38:16;7.20;;;6.90;;
14030;SDS011;7090;49.436;8.490;2023-08-30T11:40:43;7.80;;;7.10;;
14030;SDS011;7090;49.436;8.490;2023-08-30T11:43:09;6.68;;;6.38;;
14030;SDS011;7090;49.436;8.490;2023-08-30T11:45:35;6.95;;;6.65;;
14030;SDS011;7090;49.436;8.490;2023-08-30T11:48:00;6.65;;;6.40;;
14030;SDS011;7090;49.436;8.490;2023-08-30T11:50:27;7.03;;;6.72;;
14030;SDS011;7090;49.436;8.490;2023-08-30T11:52:53;6.90;;;6.60;;
14030;SDS011;7090;49.436;8.490;2023-08-30T11:55:22;7.00;;;6.70;;
14030;SDS011;7090;49.436;8.490;2023-08-30T11:57:49;7.30;;;7.00;;
14030;SDS011;7090;49.436;8.490;2023-08-30T12:00:15;7.05;;;6.65;;
14030;SDS011;7090;49.436;8.490;2023-08-30T12:02:43;7.63;;;7.25;;
14030;SDS011;7090;49.436;8.490;2023-08-30T12:05:11;25.27;;;7.28;;
14030;SDS011;7090;49.436;8.490;2023-08-30T12:07:38;7.20;;;6.90;;
14030;SDS011;7090;49.436;8.490;2023-08-30T12:10:05;7.50;;;7.10;;
14030;SDS011;7090;49.436;8.490;2023-08-30T12:12:31;6.97;;;6.68;;
14030;SDS011;7090;49.436;8.490;2023-08-30T12:14:57;7.18;;;6.82;;
14030;SDS011;7090;49.436;8.490;2023-08-30T12:17:23;7.22;;;6.93;;
14030;SDS011;7090;49.436;8.490;2023-08-30T12:19:55;7.07;;;6.78;;
14030;SDS011;7090;49.436;8.490;2023-08-30T12:22:21;7.68;;;7.28;;
14030;SDS011;7090;49.436;8.490;2023-08-30T12:24:47;6.80;;;6.50;;
14030;SDS011;7090;49.436;8.490;2023-08-30T12:27:13;7.47;;;7.07;;
14030;SDS011;7090;49.436;8.490;2023-08-30T12:29:38;7.43;;;7.03;;
14030;SDS011;7090;49.436;8.490;2023-08-30T12:32:05;7.15;;;6.82;;
14030;SDS011;7090;49.436;8.490;2023-08-30T12:34:31;6.50;;;6.30;;
14030;SDS011;7090;49.436;8.490;2023-08-30T12:36:57;7.13;;;6.82;;
14030;SDS011;7090;49.436;8.490;2023-08-30T12:39:22;7.68;;;7.28;;
14030;SDS011;7090;49.436;8.490;2023-08-30T12:41:48;7.47;;;7.07;;
14030;SDS011;7090;49.436;8.490;2023-08-30T12:44:13;6.95;;;6.63;;
14030;SDS011;7090;49.436;8.490;2023-08-30T12:46:39;6.90;;;6.60;;
14030;SDS011;7090;49.436;8.490;2023-08-30T12:49:05;7.10;;;6.80;;
14030;SDS011;7090;49.436;8.490;2023-08-30T12:51:30;7.10;;;6.70;;
14030;SDS011;7090;49.436;8.490;2023-08-30T12:53:56;7.55;;;7.15;;
14030;SDS011;7090;49.436;8.490;2023-08-30T12:56:21;7.30;;;7.00;;
14030;SDS011;7090;49.436;8.490;2023-08-30T12:58:47;8.15;;;7.20;;
14030;SDS011;7090;49.436;8.490;2023-08-30T13:01:13;8.02;;;7.53;;
14030;SDS011;7090;49.436;8.490;2023-08-30T13:03:38;7.30;;;7.00;;
14030;SDS011;7090;49.436;8.490;2023-08-30T13:06:04;8.35;;;7.95;;
14030;SDS011;7090;49.436;8.490;2023-08-30T13:08:30;7.50;;;7.10;;
14030;SDS011;7090;49.436;8.490;2023-08-30T13:10:58;8.07;;;7.68;;
14030;SDS011;7090;49.436;8.490;2023-08-30T13:13:24;7.70;;;7.30;;
14030;SDS011;7090;49.436;8.490;2023-08-30T13:15:50;7.38;;;7.07;;
14030;SDS011;7090;49.436;8.490;2023-08-30T13:18:16;7.40;;;7.07;;
14030;SDS011;7090;49.436;8.490;2023-08-30T13:20:42;7.72;;;7.20;;
14030;SDS011;7090;49.436;8.490;2023-08-30T13:23:08;6.90;;;6.60;;
14030;SDS011;7090;49.436;8.490;2023-08-30T13:25:37;7.78;;;7.45;;
14030;SDS011;7090;49.436;8.490;2023-08-30T13:28:04;8.10;;;7.60;;
14030;SDS011;7090;49.436;8.490;2023-08-30T13:30:30;7.70;;;7.30;;
14030;SDS011;7090;49.436;8.490;2023-08-30T13:32:55;7.30;;;6.97;;
14030;SDS011;7090;49.436;8.490;2023-08-30T13:35:21;7.68;;;7.28;;
14030;SDS011;7090;49.436;8.490;2023-08-30T13:37:46;7.30;;;7.00;;
14030;SDS011;7090;49.436;8.490;2023-08-30T13:40:12;7.75;;;7.40;;
14030;SDS011;7090;49.436;8.490;2023-08-30T13:42:38;7.85;;;7.45;;
14030;SDS011;7090;49.436;8.490;2023-08-30T13:45:04;8.88;;;7.88;;
14030;SDS011;7090;49.436;8.490;2023-08-30T13:47:31;8.02;;;7.63;;
14030;SDS011;7090;49.436;8.490;2023-08-30T13:49:56;8.52;;;8.00;;
14030;SDS011;7090;49.436;8.490;2023-08-30T13:52:24;8.10;;;7.70;;
14030;SDS011;7090;49.436;8.490;2023-08-30T13:54:50;8.65;;;8.25;;
14030;SDS011;7090;49.436;8.490;2023-08-30T13:57:16;8.20;;;7.80;;
14030;SDS011;7090;49.436;8.490;2023-08-30T13:59:42;7.78;;;7.47;;
14030;SDS011;7090;49.436;8.490;2023-08-30T14:02:08;8.48;;;7.97;;
14030;SDS011;7090;49.436;8.490;2023-08-30T14:04:33;7.88;;;7.57;;
14030;SDS011;7090;49.436;8.490;2023-08-30T14:07:01;7.97;;;7.50;;
14030;SDS011;7090;49.436;8.490;2023-08-30T14:09:28;8.63;;;8.20;;
14030;SDS011;7090;49.436;8.490;2023-08-30T14:11:54;8.80;;;8.38;;
14030;SDS011;7090;49.436;8.490;2023-08-30T14:14:20;8.23;;;7.82;;
14030;SDS011;7090;49.436;8.490;2023-08-30T14:16:46;8.73;;;8.23;;
14030;SDS011;7090;49.436;8.490;2023-08-30T14:19:11;9.00;;;8.50;;
14030;SDS011;7090;49.436;8.490;2023-08-30T14:21:37;8.93;;;8.32;;
14030;SDS011;7090;49.436;8.490;2023-08-30T14:24:02;7.90;;;7.60;;
14030;SDS011;7090;49.436;8.490;2023-08-30T14:26:28;8.15;;;7.75;;
14030;SDS011;7090;49.436;8.490;2023-08-30T14:28:54;7.60;;;7.30;;
14030;SDS011;7090;49.436;8.490;2023-08-30T14:31:19;8.30;;;7.90;;
14030;SDS011;7090;49.436;8.490;2023-08-30T14:33:45;7.80;;;7.50;;
14030;SDS011;7090;49.436;8.490;2023-08-30T14:36:11;7.70;;;7.40;;
14030;SDS011;7090;49.436;8.490;2023-08-30T14:38:37;8.45;;;8.05;;
14030;SDS011;7090;49.436;8.490;2023-08-30T14:41:03;8.70;;;8.20;;
14030;SDS011;7090;49.436;8.490;2023-08-30T14:43:28;7.95;;;7.65;;
14030;SDS011;7090;49.436;8.490;2023-08-30T14:45:59;7.65;;;7.25;;
14030;SDS011;7090;49.436;8.490;2023-08-30T14:48:25;8.18;;;7.63;;
14030;SDS011;7090;49.436;8.490;2023-08-30T14:50:51;8.10;;;7.70;;
14030;SDS011;7090;49.436;8.490;2023-08-30T14:53:16;8.85;;;8.10;;
14030;SDS011;7090;49.436;8.490;2023-08-30T14:55:45;7.95;;;7.45;;
14030;SDS011;7090;49.436;8.490;2023-08-30T14:58:11;8.10;;;7.70;;
14030;SDS011;7090;49.436;8.490;2023-08-30T15:00:37;8.93;;;8.43;;
14030;SDS011;7090;49.436;8.490;2023-08-30T15:03:03;8.75;;;8.25;;
14030;SDS011;7090;49.436;8.490;2023-08-30T15:05:30;8.77;;;8.27;;